Time;durP1;ratioP1;P1;durP2;ratioP2;P2;SDS_P1;SDS_P2;PMS_P1;PMS_P2;Temp;Humidity;BMP_temperature;BMP_pressure;BME280_temperature;BME280_humidity;BME280_pressure;Samples;Min_cycle;Max_cycle;Signal;HPM_P1;HPM_P2
2021/06/25 00:02:18;;;;;;;8.60;5.75;;;17.90;99.90;;;;;;4971214;28;20120;-46
2021/06/25 00:04:43;;;;;;;10.48;6.70;;;17.80;99.90;;;;;;4970680;28;20496;-43
2021/06/25 00:07:09;;;;;;;9.57;6.40;;;17.80;99.90;;;;;;4974233;28;20038;-46
2021/06/25 00:09:34;;;;;;;11.15;7.97;;;17.70;99.90;;;;;;4975055;28;20389;-47
2021/06/25 00:12:00;;;;;;;12.63;8.48;;;17.70;99.90;;;;;;4975102;28;20109;-49
2021/06/25 00:14:26;;;;;;;12.35;9.07;;;17.70;99.90;;;;;;4974337;28;20105;-50
2021/06/25 00:16:52;;;;;;;11.70;8.98;;;17.70;99.90;;;;;;4974864;28;20034;-47
2021/06/25 00:19:18;;;;;;;10.32;8.27;;;17.70;99.90;;;;;;4974828;28;20014;-48
2021/06/25 00:21:44;;;;;;;9.52;8.57;;;17.60;99.90;;;;;;4974874;28;20085;-50
2021/06/25 00:24:10;;;;;;;11.43;8.40;;;17.60;99.90;;;;;;4974099;28;20035;-47
2021/06/25 00:26:35;;;;;;;8.93;8.02;;;17.60;99.90;;;;;;4973336;28;20118;-45
2021/06/25 00:29:01;;;;;;;9.30;7.72;;;17.60;99.90;;;;;;4973267;28;20456;-47
2021/06/25 00:31:27;;;;;;;11.13;8.75;;;17.60;99.90;;;;;;4974345;28;20056;-47
2021/06/25 00:33:52;;;;;;;14.68;9.27;;;17.60;99.90;;;;;;4974058;28;20031;-51
2021/06/25 00:36:18;;;;;;;10.55;8.90;;;17.60;99.90;;;;;;4974394;28;20089;-51
2021/06/25 00:38:43;;;;;;;13.57;8.55;;;17.60;99.90;;;;;;4974287;28;20109;-49
2021/06/25 00:41:09;;;;;;;9.52;8.65;;;17.60;99.90;;;;;;4973163;28;20445;-45
2021/06/25 00:43:37;;;;;;;9.85;8.35;;;17.60;99.90;;;;;;4972525;28;20050;-45
2021/06/25 00:46:03;;;;;;;10.25;8.18;;;17.60;99.90;;;;;;4974123;28;20030;-46
2021/06/25 00:48:28;;;;;;;10.00;9.02;;;17.60;99.90;;;;;;4974085;28;20023;-46
2021/06/25 00:50:54;;;;;;;9.68;8.38;;;17.60;99.90;;;;;;4974147;28;20026;-45
2021/06/25 00:53:20;;;;;;;11.27;9.18;;;17.50;99.90;;;;;;4973710;28;20026;-45
2021/06/25 00:55:45;;;;;;;11.00;8.82;;;17.60;99.90;;;;;;4973928;28;20023;-47
2021/06/25 00:58:17;;;;;;;15.63;8.88;;;17.50;99.90;;;;;;4974663;28;20033;-45
2021/06/25 01:00:43;;;;;;;16.10;9.48;;;17.60;99.90;;;;;;4972723;28;20184;-45
2021/06/25 01:03:09;;;;;;;10.50;9.38;;;17.50;99.90;;;;;;4974015;28;20401;-45
2021/06/25 01:05:35;;;;;;;11.23;8.93;;;17.50;99.90;;;;;;4969262;28;20035;-45
2021/06/25 01:08:01;;;;;;;10.18;8.70;;;17.50;99.90;;;;;;4968393;28;20135;-49
2021/06/25 01:10:27;;;;;;;10.23;8.00;;;17.50;99.90;;;;;;4965741;28;20102;-45
2021/06/25 01:12:52;;;;;;;10.50;9.07;;;17.50;99.90;;;;;;4958257;28;20023;-45
2021/06/25 01:15:18;;;;;;;9.07;8.27;;;17.50;99.90;;;;;;4965173;28;20034;-48
2021/06/25 01:17:45;;;;;;;9.98;8.80;;;17.50;99.90;;;;;;4969328;28;20027;-47
2021/06/25 01:20:17;;;;;;;10.52;8.63;;;17.50;99.90;;;;;;4969418;28;20038;-45
2021/06/25 01:22:43;;;;;;;10.43;9.40;;;17.50;99.90;;;;;;4954410;28;20031;-45
2021/06/25 01:25:14;;;;;;;9.65;8.65;;;17.50;99.90;;;;;;4960769;28;20113;-45
2021/06/25 01:27:40;;;;;;;8.60;7.70;;;17.40;99.90;;;;;;4973675;28;20422;-46
2021/06/25 01:30:09;;;;;;;9.35;8.45;;;17.40;99.90;;;;;;4973537;28;20037;-45
2021/06/25 01:32:35;;;;;;;10.10;9.02;;;17.40;99.90;;;;;;4973261;28;20033;-49
2021/06/25 01:35:02;;;;;;;10.85;9.23;;;17.40;99.90;;;;;;4959521;28;20643;-45
2021/06/25 01:37:28;;;;;;;12.20;9.80;;;17.40;99.90;;;;;;4954138;28;20110;-50
2021/06/25 01:39:54;;;;;;;14.93;10.02;;;17.40;99.90;;;;;;4959302;28;20089;-50
2021/06/25 01:42:20;;;;;;;10.35;9.38;;;17.40;99.90;;;;;;4973333;28;20034;-46
2021/06/25 01:44:46;;;;;;;14.63;10.75;;;17.40;99.90;;;;;;4958473;28;20035;-46
2021/06/25 01:47:15;;;;;;;12.23;10.52;;;17.40;99.90;;;;;;4953950;28;20031;-53
2021/06/25 01:49:40;;;;;;;13.05;10.57;;;17.40;99.90;;;;;;4954970;28;20054;-52
2021/06/25 01:52:06;;;;;;;16.33;10.30;;;17.50;99.90;;;;;;4954283;28;20023;-49
2021/06/25 01:54:32;;;;;;;13.00;11.13;;;17.50;99.90;;;;;;4963789;28;20034;-49
2021/06/25 01:56:57;;;;;;;13.52;11.52;;;17.50;99.90;;;;;;4971641;28;20042;-47
2021/06/25 01:59:23;;;;;;;14.05;11.23;;;17.50;99.90;;;;;;4955080;28;20031;-46
2021/06/25 02:01:48;;;;;;;18.92;11.90;;;17.50;99.90;;;;;;4954227;28;20031;-45
2021/06/25 02:04:14;;;;;;;15.65;12.35;;;17.50;99.90;;;;;;4972175;28;20031;-49
2021/06/25 02:06:40;;;;;;;17.30;12.43;;;17.50;99.90;;;;;;4972841;28;20042;-45
2021/06/25 02:09:05;;;;;;;15.20;13.15;;;17.50;99.90;;;;;;4969787;28;20089;-49
2021/06/25 02:11:31;;;;;;;14.40;12.75;;;17.50;99.90;;;;;;4964320;28;20038;-50
2021/06/25 02:13:56;;;;;;;16.40;12.85;;;17.50;99.90;;;;;;4970398;28;20034;-49
2021/06/25 02:16:22;;;;;;;16.63;13.50;;;17.50;99.90;;;;;;4984970;28;20034;-56
2021/06/25 02:18:47;;;;;;;20.20;15.07;;;17.50;99.90;;;;;;4961619;28;20039;-53
2021/06/25 02:21:13;;;;;;;18.30;14.77;;;17.40;99.90;;;;;;4952748;29;20063;-56
2021/06/25 02:23:39;;;;;;;22.17;15.38;;;17.40;99.90;;;;;;4950922;28;20034;-54
2021/06/25 02:26:05;;;;;;;15.40;13.68;;;17.40;99.90;;;;;;4951837;29;20371;-54
2021/06/25 02:28:30;;;;;;;15.75;14.05;;;17.40;99.90;;;;;;4964669;28;20030;-57
2021/06/25 02:30:57;;;;;;;21.83;15.73;;;17.40;99.90;;;;;;4971692;28;20038;-54
2021/06/25 02:33:23;;;;;;;15.52;13.68;;;17.30;99.90;;;;;;4969726;28;20033;-54
2021/06/25 02:35:49;;;;;;;20.92;14.23;;;17.30;99.90;;;;;;4971808;28;20023;-54
2021/06/25 02:38:15;;;;;;;17.75;15.85;;;17.30;99.90;;;;;;4969617;28;20035;-53
2021/06/25 02:40:41;;;;;;;16.98;14.68;;;17.30;99.90;;;;;;4971083;28;20541;-55
2021/06/25 02:43:06;;;;;;;15.02;13.35;;;17.30;99.90;;;;;;4962417;28;20023;-52
2021/06/25 02:45:32;;;;;;;14.75;13.00;;;17.30;99.90;;;;;;4951841;29;20055;-51
2021/06/25 02:47:58;;;;;;;19.52;15.90;;;17.40;99.90;;;;;;4952855;28;20505;-50
2021/06/25 02:50:23;;;;;;;16.13;14.23;;;17.40;99.90;;;;;;4952085;29;20068;-48
2021/06/25 02:52:50;;;;;;;16.40;14.38;;;17.40;99.90;;;;;;4956759;28;20038;-55
2021/06/25 02:55:16;;;;;;;15.93;14.32;;;17.30;99.90;;;;;;4970584;28;20027;-51
2021/06/25 02:57:41;;;;;;;14.90;13.35;;;17.30;99.90;;;;;;4968741;28;20493;-49
2021/06/25 03:00:11;;;;;;;16.25;13.40;;;17.30;99.90;;;;;;4971532;28;20031;-56
2021/06/25 03:02:37;;;;;;;16.63;12.70;;;17.30;99.90;;;;;;4967991;28;20118;-54
2021/06/25 03:05:03;;;;;;;15.50;13.63;;;17.20;99.90;;;;;;4949400;29;20713;-55
2021/06/25 03:07:29;;;;;;;13.50;12.00;;;17.20;99.90;;;;;;4965429;28;20029;-54
2021/06/25 03:09:55;;;;;;;13.45;12.05;;;17.20;99.90;;;;;;4969174;28;20113;-52
2021/06/25 03:12:20;;;;;;;12.65;11.35;;;17.20;99.90;;;;;;4970427;28;20027;-50
2021/06/25 03:14:46;;;;;;;13.23;11.93;;;17.20;99.90;;;;;;4969116;28;20041;-50
2021/06/25 03:17:11;;;;;;;15.68;12.23;;;17.20;99.90;;;;;;4984884;28;20453;-50
2021/06/25 03:19:37;;;;;;;13.27;11.85;;;17.20;99.90;;;;;;4963179;28;20031;-51
2021/06/25 03:22:04;;;;;;;17.80;11.43;;;17.20;99.90;;;;;;4954366;28;20031;-49
2021/06/25 03:24:29;;;;;;;11.20;10.10;;;17.30;99.90;;;;;;4969220;28;20050;-50
2021/06/25 03:26:55;;;;;;;11.55;10.35;;;17.30;99.90;;;;;;4970456;28;20065;-53
2021/06/25 03:29:20;;;;;;;11.10;10.10;;;17.30;99.90;;;;;;4970969;28;20030;-47
2021/06/25 03:31:46;;;;;;;10.90;9.80;;;17.30;99.90;;;;;;4971568;28;20027;-50
2021/06/25 03:34:12;;;;;;;10.98;9.90;;;17.20;99.90;;;;;;4952035;28;20039;-52
2021/06/25 03:36:37;;;;;;;14.73;10.45;;;17.30;99.90;;;;;;4952118;29;20633;-51
2021/06/25 03:39:05;;;;;;;11.25;9.75;;;17.30;99.90;;;;;;4967486;28;20489;-48
2021/06/25 03:41:31;;;;;;;14.45;9.23;;;17.30;99.90;;;;;;4973506;28;20058;-52
2021/06/25 03:43:56;;;;;;;15.13;10.57;;;17.30;99.90;;;;;;4959247;28;20028;-52
2021/06/25 03:46:23;;;;;;;12.00;10.10;;;17.30;99.90;;;;;;4954864;29;20474;-51
2021/06/25 03:48:49;;;;;;;12.98;11.43;;;17.30;99.90;;;;;;4957207;28;20509;-49
2021/06/25 03:51:14;;;;;;;15.90;13.10;;;17.30;99.90;;;;;;4955995;29;20031;-52
2021/06/25 03:53:40;;;;;;;12.77;11.40;;;17.30;99.90;;;;;;4967320;28;20459;-49
2021/06/25 03:56:12;;;;;;;12.88;11.50;;;17.30;99.90;;;;;;4975274;28;20582;-49
2021/06/25 03:58:46;;;;;;;11.57;10.25;;;17.30;99.90;;;;;;4973894;28;20110;-48
2021/06/25 04:01:11;;;;;;;15.25;11.85;;;17.30;99.90;;;;;;4975411;28;20059;-48
2021/06/25 04:03:38;;;;;;;13.20;11.80;;;17.30;99.90;;;;;;4963874;28;20051;-51
2021/06/25 04:06:04;;;;;;;13.75;12.45;;;17.30;99.90;;;;;;4955385;29;20027;-49
2021/06/25 04:08:31;;;;;;;18.88;13.45;;;17.30;99.90;;;;;;4956699;28;20038;-49
2021/06/25 04:10:58;;;;;;;15.70;12.45;;;17.30;99.90;;;;;;4959848;28;20548;-47
2021/06/25 04:13:25;;;;;;;15.93;14.05;;;17.30;99.90;;;;;;4974333;28;20027;-47
2021/06/25 04:15:51;;;;;;;16.10;12.68;;;17.30;99.90;;;;;;4960344;28;20023;-53
2021/06/25 04:18:16;;;;;;;17.48;15.05;;;17.30;99.90;;;;;;4956406;28;20035;-51
2021/06/25 04:20:43;;;;;;;17.40;15.23;;;17.30;99.90;;;;;;4955338;29;20490;-50
2021/06/25 04:23:10;;;;;;;18.27;16.48;;;17.30;99.90;;;;;;4960617;28;20022;-52
2021/06/25 04:25:35;;;;;;;20.25;15.95;;;17.30;99.90;;;;;;4968446;28;20508;-50
2021/06/25 04:28:01;;;;;;;20.20;16.75;;;17.30;99.90;;;;;;4974654;28;20039;-51
2021/06/25 04:30:27;;;;;;;23.98;19.27;;;17.40;99.90;;;;;;4966321;28;20023;-49
2021/06/25 04:32:53;;;;;;;22.83;19.00;;;17.40;99.90;;;;;;4974360;28;20433;-50
2021/06/25 04:35:19;;;;;;;23.10;19.08;;;17.40;99.90;;;;;;4964250;28;20085;-52
2021/06/25 04:37:44;;;;;;;21.15;14.98;;;17.40;99.90;;;;;;4955317;29;20374;-47
2021/06/25 04:40:11;;;;;;;19.08;14.45;;;17.40;99.90;;;;;;4956566;28;20509;-53
2021/06/25 04:42:36;;;;;;;17.52;14.30;;;17.40;99.90;;;;;;4955362;29;20024;-49
2021/06/25 04:45:02;;;;;;;18.48;15.38;;;17.40;99.90;;;;;;4970307;28;20046;-49
2021/06/25 04:47:28;;;;;;;24.33;18.77;;;17.30;99.90;;;;;;4973227;28;20092;-48
2021/06/25 04:49:53;;;;;;;25.25;20.13;;;17.30;99.90;;;;;;4974810;28;20034;-51
2021/06/25 04:52:19;;;;;;;26.95;22.85;;;17.30;99.90;;;;;;4964392;28;20498;-50
2021/06/25 04:54:44;;;;;;;28.08;21.08;;;17.30;99.90;;;;;;4954400;28;20039;-48
2021/06/25 04:57:10;;;;;;;28.95;23.20;;;17.30;99.90;;;;;;4963601;28;20125;-47
2021/06/25 04:59:36;;;;;;;30.75;24.52;;;17.30;99.90;;;;;;4974181;28;20081;-50
2021/06/25 05:02:01;;;;;;;33.85;25.17;;;17.30;99.90;;;;;;4974297;28;20050;-46
2021/06/25 05:04:27;;;;;;;34.95;26.77;;;17.30;99.90;;;;;;4973189;28;20027;-45
2021/06/25 05:06:52;;;;;;;38.70;30.25;;;17.40;99.90;;;;;;4989067;28;20109;-48
2021/06/25 05:11:52;;;;;;;44.05;31.90;;;17.50;99.90;;;;;;4991665;28;20105;-49
2021/06/25 05:14:17;;;;;;;36.78;28.30;;;17.50;99.90;;;;;;4992901;28;20026;-48
2021/06/25 05:16:43;;;;;;;38.70;27.35;;;17.60;99.90;;;;;;4991934;28;20030;-49
2021/06/25 05:19:08;;;;;;;31.08;25.25;;;17.60;99.90;;;;;;4992251;28;20492;-52
2021/06/25 05:21:35;;;;;;;29.50;25.23;;;17.60;99.90;;;;;;4993151;28;20027;-47
2021/06/25 05:24:01;;;;;;;32.63;25.77;;;17.70;99.90;;;;;;4991664;28;20030;-49
2021/06/25 05:26:26;;;;;;;33.58;24.55;;;17.70;99.90;;;;;;4992929;28;20117;-50
2021/06/25 05:28:52;;;;;;;28.55;25.42;;;17.80;99.90;;;;;;4993088;28;20030;-47
2021/06/25 05:31:18;;;;;;;35.60;26.85;;;17.90;99.90;;;;;;4993350;28;20025;-49
2021/06/25 05:33:44;;;;;;;28.70;25.60;;;18.00;99.90;;;;;;4991306;28;20306;-48
2021/06/25 05:36:09;;;;;;;32.08;27.00;;;18.20;99.90;;;;;;4992906;28;20600;-48
2021/06/25 05:38:35;;;;;;;28.58;23.02;;;18.40;99.90;;;;;;4992736;28;20049;-47
2021/06/25 05:41:00;;;;;;;31.75;24.42;;;18.50;99.90;;;;;;4992667;28;20062;-48
2021/06/25 05:43:26;;;;;;;32.42;26.10;;;18.60;99.90;;;;;;4992222;28;20138;-50
2021/06/25 05:45:52;;;;;;;38.00;28.33;;;18.60;99.90;;;;;;4992542;28;20042;-51
2021/06/25 05:48:17;;;;;;;30.58;26.63;;;18.70;99.90;;;;;;4987231;28;20505;-49
2021/06/25 05:50:43;;;;;;;31.65;26.42;;;18.80;99.90;;;;;;4980209;28;20026;-48
2021/06/25 05:53:09;;;;;;;32.70;27.33;;;18.90;99.90;;;;;;4975059;28;20072;-50
2021/06/25 05:55:34;;;;;;;31.48;26.58;;;19.10;99.90;;;;;;4984373;28;20030;-46
2021/06/25 05:58:00;;;;;;;38.72;30.08;;;19.20;99.90;;;;;;4979540;28;20034;-49
2021/06/25 06:00:26;;;;;;;39.22;31.52;;;19.30;99.90;;;;;;4973727;28;20089;-46
2021/06/25 06:02:51;;;;;;;50.85;35.38;;;19.30;99.90;;;;;;4990920;28;20042;-49
2021/06/25 06:05:17;;;;;;;38.35;31.05;;;19.30;99.90;;;;;;4984563;28;20106;-49
2021/06/25 06:07:43;;;;;;;38.08;29.58;;;19.20;99.90;;;;;;4992333;28;20446;-49
2021/06/25 06:10:09;;;;;;;39.47;31.92;;;19.20;99.90;;;;;;4981514;28;20034;-48
2021/06/25 06:12:36;;;;;;;45.65;32.28;;;19.10;99.90;;;;;;4987938;28;20034;-49
2021/06/25 06:15:01;;;;;;;42.17;33.15;;;19.10;99.90;;;;;;4986557;28;20102;-47
2021/06/25 06:17:27;;;;;;;37.83;32.70;;;19.00;99.90;;;;;;4992235;28;20034;-45
2021/06/25 06:19:54;;;;;;;43.47;33.03;;;19.00;99.90;;;;;;4984581;28;20509;-49
2021/06/25 06:33:26;;;;;;;40.47;31.83;;;19.30;99.90;;;;;;4989417;28;20050;-47
2021/06/25 06:35:52;;;;;;;36.28;30.13;;;19.30;99.90;;;;;;4984856;28;20073;-46
2021/06/25 06:38:17;;;;;;;38.90;31.88;;;19.20;99.90;;;;;;4972305;28;20441;-48
2021/06/25 06:40:43;;;;;;;42.45;33.33;;;19.10;99.90;;;;;;4977001;28;20026;-46
2021/06/25 06:43:09;;;;;;;43.92;34.22;;;19.00;99.90;;;;;;4974439;28;20101;-48
2021/06/25 06:45:36;;;;;;;39.22;32.30;;;18.90;99.90;;;;;;4971812;28;20030;-47
2021/06/25 06:48:02;;;;;;;37.55;30.95;;;18.80;99.90;;;;;;4973321;28;20057;-47
2021/06/25 06:50:28;;;;;;;41.45;32.53;;;18.80;99.90;;;;;;4975785;28;20105;-52
2021/06/25 06:52:53;;;;;;;46.70;35.45;;;18.70;99.90;;;;;;4981104;28;20529;-48
2021/06/25 06:55:20;;;;;;;39.22;32.50;;;18.80;99.90;;;;;;4984410;28;20128;-51
2021/06/25 06:57:46;;;;;;;47.88;35.70;;;18.80;99.90;;;;;;4983336;28;20029;-52
2021/06/25 07:00:12;;;;;;;36.75;31.35;;;18.80;99.90;;;;;;4971846;28;20019;-53
2021/06/25 07:02:43;;;;;;;43.75;32.22;;;18.80;99.90;;;;;;4972883;28;20023;-51
2021/06/25 07:05:10;;;;;;;44.38;34.70;;;18.80;99.90;;;;;;4971159;28;20042;-52
2021/06/25 07:07:36;;;;;;;39.22;31.48;;;18.80;99.90;;;;;;4981420;28;20029;-50
2021/06/25 07:10:04;;;;;;;47.50;35.97;;;18.80;99.90;;;;;;4990814;28;20038;-52
2021/06/25 07:12:29;;;;;;;44.17;32.63;;;18.80;99.90;;;;;;4989872;28;20037;-50
2021/06/25 07:14:55;;;;;;;40.42;33.22;;;18.80;99.90;;;;;;4990314;28;20022;-49
2021/06/25 07:17:21;;;;;;;46.53;34.47;;;18.70;99.90;;;;;;4974650;28;20058;-49
2021/06/25 07:19:48;;;;;;;43.78;34.30;;;18.60;99.90;;;;;;4986457;28;20122;-50
2021/06/25 07:22:13;;;;;;;42.88;34.03;;;18.60;99.90;;;;;;4972819;28;20134;-50
2021/06/25 07:24:39;;;;;;;42.78;34.10;;;18.50;99.90;;;;;;4970578;28;20572;-54
2021/06/25 07:27:05;;;;;;;42.90;33.85;;;18.50;99.90;;;;;;4973443;28;20113;-52
2021/06/25 07:29:31;;;;;;;40.83;33.97;;;18.50;99.90;;;;;;4972144;28;20110;-48
2021/06/25 07:31:57;;;;;;;48.70;33.83;;;18.40;99.90;;;;;;4982631;28;20133;-49
2021/06/25 07:34:22;;;;;;;41.17;32.47;;;18.40;99.90;;;;;;4990092;28;20520;-48
2021/06/25 07:36:48;;;;;;;41.28;32.42;;;18.40;99.90;;;;;;4989154;28;20516;-49
2021/06/25 07:39:13;;;;;;;36.70;30.13;;;18.40;99.90;;;;;;4990811;28;20097;-49
2021/06/25 07:41:39;;;;;;;36.85;31.08;;;18.40;99.90;;;;;;4982593;28;20034;-50
2021/06/25 07:44:05;;;;;;;39.42;32.80;;;18.40;99.90;;;;;;4970694;28;20547;-49
2021/06/25 07:46:31;;;;;;;40.50;32.15;;;18.40;99.90;;;;;;4972072;28;20026;-47
2021/06/25 07:48:56;;;;;;;38.03;28.85;;;18.50;99.90;;;;;;4971148;28;20132;-53
2021/06/25 07:51:22;;;;;;;39.25;31.73;;;18.50;99.90;;;;;;4975000;28;20098;-51
2021/06/25 07:53:48;;;;;;;42.40;34.38;;;18.60;99.90;;;;;;4969191;28;20563;-49
2021/06/25 07:56:14;;;;;;;39.53;29.73;;;18.60;99.90;;;;;;4968071;28;20154;-56
2021/06/25 07:58:40;;;;;;;38.75;29.60;;;18.70;99.90;;;;;;4969456;28;20136;-52
2021/06/25 08:01:06;;;;;;;39.40;32.45;;;18.90;99.90;;;;;;4970996;28;20095;-54
2021/06/25 08:03:32;;;;;;;40.22;33.70;;;19.10;99.90;;;;;;4970276;28;20023;-53
2021/06/25 08:05:57;;;;;;;38.83;31.40;;;19.50;99.90;;;;;;4971420;28;20420;-52
2021/06/25 08:08:23;;;;;;;38.33;30.73;;;20.00;99.90;;;;;;4971208;28;20042;-55
2021/06/25 08:10:48;;;;;;;41.05;32.05;;;20.40;99.90;;;;;;4971193;28;20031;-55
2021/06/25 08:13:14;;;;;;;42.08;33.58;;;20.90;99.90;;;;;;4971051;28;20027;-51
2021/06/25 08:15:39;;;;;;;113.93;78.72;;;21.50;99.90;;;;;;4970514;28;20035;-52
2021/06/25 08:18:05;;;;;;;39.05;31.90;;;21.90;99.90;;;;;;4970846;28;20050;-54
2021/06/25 08:20:31;;;;;;;34.38;27.67;;;22.40;99.90;;;;;;4970893;28;20425;-52
2021/06/25 08:22:57;;;;;;;35.65;29.00;;;23.10;99.40;;;;;;4969561;28;20026;-53
2021/06/25 08:25:24;;;;;;;36.65;29.85;;;23.20;98.00;;;;;;4970181;28;20389;-52
2021/06/25 08:27:49;;;;;;;35.15;29.88;;;22.90;98.60;;;;;;4973221;28;20444;-52
2021/06/25 08:30:15;;;;;;;33.25;28.27;;;22.60;99.00;;;;;;4974388;28;20023;-52
2021/06/25 08:32:43;;;;;;;38.95;33.60;;;22.20;99.60;;;;;;4974423;28;20023;-51
2021/06/25 08:35:09;;;;;;;35.47;30.55;;;22.00;99.80;;;;;;4973721;28;20030;-50
2021/06/25 08:37:35;;;;;;;39.92;31.45;;;21.90;99.90;;;;;;4974443;28;20031;-55
2021/06/25 08:40:00;;;;;;;42.85;32.88;;;21.80;99.90;;;;;;4974294;28;20505;-51
2021/06/25 08:42:27;;;;;;;41.88;34.25;;;21.50;99.90;;;;;;4972914;28;20031;-53
2021/06/25 08:44:52;;;;;;;43.28;30.80;;;21.40;99.90;;;;;;4976161;28;20089;-57
2021/06/25 08:47:24;;;;;;;44.40;32.40;;;21.30;99.90;;;;;;4979325;28;20066;-49
2021/06/25 08:49:51;;;;;;;46.78;33.85;;;21.30;99.90;;;;;;4975231;28;20122;-53
2021/06/25 08:52:16;;;;;;;43.50;33.63;;;21.40;99.90;;;;;;4982896;28;20054;-52
2021/06/25 08:54:43;;;;;;;40.15;31.95;;;21.50;99.90;;;;;;4992789;28;20094;-54
2021/06/25 08:57:09;;;;;;;42.25;35.30;;;21.30;99.90;;;;;;4991667;28;20037;-55
2021/06/25 08:59:35;;;;;;;46.95;35.50;;;21.10;99.90;;;;;;4991944;28;20022;-48
2021/06/25 09:02:02;;;;;;;52.20;38.85;;;21.00;99.90;;;;;;4987694;28;20089;-48
2021/06/25 09:04:41;;;;;;;47.85;37.67;;;20.90;99.90;;;;;;4978920;28;20029;-47
2021/06/25 09:07:07;;;;;;;51.15;38.55;;;20.80;99.90;;;;;;4991946;28;20031;-50
2021/06/25 09:09:45;;;;;;;50.00;38.05;;;20.90;99.90;;;;;;4993217;28;20102;-50
2021/06/25 09:12:15;;;;;;;47.05;37.65;;;21.20;99.90;;;;;;4987174;28;20519;-49
2021/06/25 09:15:06;;;;;;;44.75;36.15;;;21.70;99.90;;;;;;4973348;28;20505;-47
2021/06/25 09:17:33;;;;;;;48.67;37.70;;;22.30;99.90;;;;;;4975247;28;20552;-47
2021/06/25 09:19:59;;;;;;;48.17;38.95;;;22.80;99.30;;;;;;4974107;28;20034;-47
2021/06/25 09:22:25;;;;;;;42.65;34.55;;;23.10;98.70;;;;;;4986357;28;20026;-48
2021/06/25 09:25:06;;;;;;;44.22;36.28;;;23.00;98.80;;;;;;4979637;28;20030;-47
2021/06/25 09:27:33;;;;;;;49.13;38.75;;;23.00;98.40;;;;;;4985039;28;20512;-46
2021/06/25 09:30:06;;;;;;;47.83;37.20;;;22.80;98.80;;;;;;4993430;28;20030;-49
2021/06/25 09:32:37;;;;;;;48.45;38.55;;;22.50;99.30;;;;;;4980383;28;20039;-50
2021/06/25 09:35:17;;;;;;;46.38;38.75;;;22.60;99.10;;;;;;4973876;28;20035;-48
2021/06/25 09:37:45;;;;;;;46.05;34.53;;;22.70;98.80;;;;;;4974238;28;20124;-48
2021/06/25 09:40:13;;;;;;;43.63;35.20;;;22.60;98.80;;;;;;4973814;28;20018;-48
2021/06/25 09:42:39;;;;;;;42.85;35.30;;;22.60;98.20;;;;;;4973320;28;20042;-54
2021/06/25 09:45:17;;;;;;;39.63;33.95;;;22.60;98.70;;;;;;4983910;28;20022;-50
2021/06/25 09:47:53;;;;;;;42.85;33.25;;;22.50;98.50;;;;;;4984994;28;20580;-46
2021/06/25 09:50:21;;;;;;;46.50;37.42;;;22.60;98.90;;;;;;4973214;28;20037;-45
2021/06/25 09:52:58;;;;;;;37.47;30.27;;;22.50;97.90;;;;;;4974622;28;20039;-53
2021/06/25 09:55:29;;;;;;;40.45;31.00;;;22.50;98.60;;;;;;4986501;28;20181;-46
2021/06/25 09:58:21;;;;;;;43.83;33.67;;;22.50;98.50;;;;;;4972943;28;20039;-48
2021/06/25 10:03:33;;;;;;;40.67;34.25;;;22.60;98.20;;;;;;4991581;28;20026;-53
2021/06/25 10:06:16;;;;;;;46.72;36.03;;;22.50;98.80;;;;;;4991085;28;20488;-50
2021/06/25 10:08:44;;;;;;;38.08;30.05;;;22.40;97.80;;;;;;4991398;28;20022;-51
2021/06/25 10:11:10;;;;;;;42.33;34.47;;;22.40;98.20;;;;;;4972977;28;20022;-48
2021/06/25 10:13:37;;;;;;;46.45;36.13;;;22.30;98.40;;;;;;4972252;28;20389;-50
2021/06/25 10:16:07;;;;;;;42.08;33.72;;;22.30;98.10;;;;;;4974168;28;20397;-52
2021/06/25 10:18:37;;;;;;;40.65;32.33;;;22.20;98.60;;;;;;4972912;28;20053;-51
2021/06/25 10:21:04;;;;;;;34.88;30.67;;;22.20;98.30;;;;;;4991142;28;20436;-50
2021/06/25 10:23:33;;;;;;;41.08;33.67;;;22.30;98.30;;;;;;4990112;28;20053;-49
2021/06/25 10:26:06;;;;;;;44.83;33.65;;;22.60;98.20;;;;;;4972861;28;20137;-50
2021/06/25 10:28:33;;;;;;;39.80;33.13;;;22.80;97.30;;;;;;4973311;28;20037;-52
2021/06/25 10:30:59;;;;;;;43.10;32.15;;;22.80;97.30;;;;;;4972894;28;20023;-50
2021/06/25 10:33:26;;;;;;;38.45;32.08;;;22.80;97.20;;;;;;4971718;28;20537;-50
2021/06/25 10:35:52;;;;;;;35.20;29.95;;;22.90;97.00;;;;;;4974010;28;20031;-53
2021/06/25 10:38:19;;;;;;;34.88;29.42;;;22.70;96.40;;;;;;4972515;28;20034;-52
2021/06/25 10:41:00;;;;;;;30.88;26.30;;;22.70;97.10;;;;;;4987958;28;20022;-47
2021/06/25 10:43:47;;;;;;;29.75;25.33;;;22.80;96.50;;;;;;4990449;28;20097;-46
2021/06/25 10:46:28;;;;;;;32.75;25.90;;;22.90;96.10;;;;;;4987674;28;20160;-51
2021/06/25 10:48:59;;;;;;;41.25;30.60;;;23.00;95.10;;;;;;4990438;28;20049;-50
2021/06/25 10:51:31;;;;;;;30.50;22.60;;;23.20;95.20;;;;;;4989974;28;20033;-51
2021/06/25 10:54:15;;;;;;;32.60;24.90;;;23.30;96.30;;;;;;4990956;28;20018;-48
2021/06/25 10:57:04;;;;;;;25.08;22.23;;;23.30;95.60;;;;;;4990601;28;20030;-51
2021/06/25 10:59:31;;;;;;;28.15;23.73;;;23.30;94.20;;;;;;4991437;28;20413;-47
2021/06/25 11:02:03;;;;;;;29.38;23.00;;;23.40;94.70;;;;;;4991732;28;20041;-51
2021/06/25 11:04:48;;;;;;;32.75;27.20;;;23.40;96.80;;;;;;4990507;28;20045;-50
2021/06/25 11:07:16;;;;;;;36.13;24.52;;;23.40;94.30;;;;;;4991725;28;20484;-48
2021/06/25 11:12:38;;;;;;;25.92;22.15;;;23.40;95.40;;;;;;5009352;28;20337;-46
2021/06/25 11:15:04;;;;;;;31.17;23.55;;;23.40;94.10;;;;;;5010370;28;20496;-46
2021/06/25 11:17:54;;;;;;;29.90;23.92;;;23.40;94.30;;;;;;5010604;28;20022;-51
2021/06/25 11:20:36;;;;;;;27.75;24.75;;;23.30;95.20;;;;;;5009406;28;20022;-46
2021/06/25 11:23:05;;;;;;;32.35;24.42;;;23.30;95.70;;;;;;5010868;28;20110;-49
2021/06/25 11:25:38;;;;;;;40.42;30.30;;;23.40;96.50;;;;;;5009853;28;20060;-47
2021/06/25 11:28:11;;;;;;;33.92;26.75;;;23.50;95.80;;;;;;5010724;28;20018;-47
2021/06/25 11:30:58;;;;;;;35.58;28.67;;;23.50;95.70;;;;;;5010568;28;20018;-47
2021/06/25 11:33:37;;;;;;;29.98;24.27;;;23.70;94.20;;;;;;5010061;28;20068;-47
2021/06/25 11:36:24;;;;;;;32.33;23.55;;;23.70;94.90;;;;;;5010592;28;20511;-48
2021/06/25 11:38:56;;;;;;;26.52;19.98;;;23.50;94.40;;;;;;5010613;28;20037;-46
2021/06/25 11:41:29;;;;;;;29.13;20.33;;;23.50;94.30;;;;;;5010494;28;20037;-47
2021/06/25 11:43:57;;;;;;;26.27;20.17;;;23.70;94.90;;;;;;5010217;28;20025;-48
2021/06/25 11:46:23;;;;;;;22.40;18.95;;;23.70;94.90;;;;;;5011057;28;20030;-48
2021/06/25 11:48:50;;;;;;;21.35;18.17;;;23.70;94.80;;;;;;5010186;28;20018;-49
2021/06/25 11:51:18;;;;;;;23.55;19.92;;;23.50;94.50;;;;;;5010286;28;20026;-49
2021/06/25 11:53:45;;;;;;;25.73;20.30;;;23.30;95.10;;;;;;5010645;28;20377;-48
2021/06/25 11:56:22;;;;;;;24.67;20.08;;;23.20;95.30;;;;;;5010943;28;20033;-46
2021/06/25 11:59:14;;;;;;;23.73;19.08;;;23.10;95.90;;;;;;5011308;28;20022;-49
2021/06/25 12:01:55;;;;;;;32.95;21.05;;;22.90;96.70;;;;;;5013341;28;20040;-46
2021/06/25 12:04:42;;;;;;;28.55;21.35;;;22.80;96.60;;;;;;5017617;28;20049;-48
2021/06/25 12:07:12;;;;;;;28.95;23.05;;;22.80;96.30;;;;;;5015274;28;20479;-47
2021/06/25 12:09:50;;;;;;;30.95;22.27;;;22.70;96.20;;;;;;5017137;28;20123;-46
2021/06/25 12:12:27;;;;;;;25.60;21.00;;;22.60;96.60;;;;;;5013114;28;20049;-46
2021/06/25 12:15:02;;;;;;;27.45;20.80;;;22.60;96.50;;;;;;5013674;28;20056;-47
2021/06/25 12:17:47;;;;;;;;;;;22.60;96.50;;;;;;5013355;28;20022;-50
2021/06/25 12:20:16;;;;;;;22.20;18.45;;;22.60;95.80;;;;;;5014133;28;19913;-48
2021/06/25 12:23:02;;;;;;;24.48;21.65;;;22.50;96.10;;;;;;5012874;28;20026;-46
2021/06/25 12:25:45;;;;;;;26.95;22.33;;;22.50;96.00;;;;;;5012295;28;20021;-46
2021/06/25 12:28:12;;;;;;;23.90;19.58;;;22.60;96.20;;;;;;5012606;28;20041;-51
2021/06/25 12:30:42;;;;;;;26.60;22.52;;;22.60;96.70;;;;;;5013989;28;20105;-46
2021/06/25 12:33:09;;;;;;;25.35;19.40;;;22.70;96.10;;;;;;5013968;28;20489;-47
2021/06/25 12:35:37;;;;;;;25.17;18.60;;;22.70;95.80;;;;;;5013264;28;20023;-47
2021/06/25 12:38:09;;;;;;;20.63;16.63;;;22.70;95.90;;;;;;5013862;28;20057;-45
2021/06/25 12:40:55;;;;;;;22.42;18.48;;;22.70;96.00;;;;;;5013515;28;20033;-49
2021/06/25 12:43:29;;;;;;;22.83;18.23;;;22.80;95.60;;;;;;5013426;28;20488;-46
2021/06/25 12:45:58;;;;;;;30.10;19.02;;;23.00;94.80;;;;;;5013715;28;20034;-48
2021/06/25 12:48:32;;;;;;;23.17;17.13;;;22.90;95.70;;;;;;5013624;28;20052;-49
2021/06/25 12:51:07;;;;;;;25.37;16.90;;;23.00;96.00;;;;;;5012263;28;20022;-50
2021/06/25 12:53:36;;;;;;;20.95;16.98;;;23.10;95.30;;;;;;5013204;28;20398;-46